Time;durP1;ratioP1;P1;durP2;ratioP2;P2;SDS_P1;SDS_P2;PMS_P1;PMS_P2;Temp;Humidity;BMP_temperature;BMP_pressure;BME280_temperature;BME280_humidity;BME280_pressure;Samples;Min_cycle;Max_cycle;Signal;HPM_P1;HPM_P2
2022/05/20 00:01:05;;;;;;;5.07;1.80;;;;;;;12.21;57.95;100619.59;4184636;34;35741;-74
2022/05/20 00:03:52;;;;;;;4.87;2.08;;;;;;;12.70;56.48;100618.28;4183603;34;35723;-74
2022/05/20 00:06:38;;;;;;;4.32;2.22;;;;;;;12.75;56.78;100624.53;4184979;34;34421;-74
2022/05/20 00:09:24;;;;;;;3.92;1.60;;;;;;;12.80;56.48;100616.16;4192994;34;35562;-74
2022/05/20 00:12:11;;;;;;;4.40;1.83;;;;;;;13.07;55.35;100625.59;4185892;34;34585;-74
2022/05/20 00:14:57;;;;;;;3.92;1.90;;;;;;;12.72;55.53;100613.28;4174505;34;34838;-74
2022/05/20 00:17:44;;;;;;;3.53;1.73;;;;;;;12.93;55.48;100617.31;4185229;34;34812;-74
2022/05/20 00:20:31;;;;;;;3.83;1.95;;;;;;;13.07;54.91;100605.53;4193680;34;35366;-74
2022/05/20 00:23:17;;;;;;;3.85;1.70;;;;;;;13.13;55.12;100607.88;4185705;34;35095;-74
2022/05/20 00:26:04;;;;;;;3.65;1.98;;;;;;;13.19;55.41;100616.84;4184017;34;34396;-74
2022/05/20 00:28:50;;;;;;;2.58;1.52;;;;;;;13.24;54.87;100614.00;4193588;34;35289;-74
2022/05/20 00:31:37;;;;;;;4.22;2.25;;;;;;;13.36;54.56;100608.81;4194204;34;34650;-74
2022/05/20 00:34:23;;;;;;;5.35;1.92;;;;;;;13.28;55.17;100606.78;4192857;34;34644;-74
2022/05/20 00:37:10;;;;;;;5.22;1.95;;;;;;;13.20;56.43;100607.47;4185605;34;35756;-74
2022/05/20 00:39:56;;;;;;;4.80;1.95;;;;;;;12.97;56.61;100607.31;4172087;34;35209;-74
2022/05/20 00:42:43;;;;;;;4.82;2.00;;;;;;;12.89;57.01;100602.53;4184578;34;34748;-75
2022/05/20 00:45:29;;;;;;;4.62;2.10;;;;;;;12.76;57.55;100615.12;4183890;34;37105;-74
2022/05/20 00:48:15;;;;;;;4.28;1.90;;;;;;;12.82;57.90;100613.13;4184801;34;34607;-74
2022/05/20 00:51:07;;;;;;;4.32;1.80;;;;;;;12.70;58.47;100623.78;4184967;34;35046;-74
2022/05/20 00:54:19;;;;;;;6.65;2.45;;;;;;;12.50;59.40;100623.00;4191865;34;35149;-74
2022/05/20 00:57:13;;;;;;;5.05;2.05;;;;;;;12.33;60.94;100623.53;4184812;34;36048;-74
2022/05/20 01:00:03;;;;;;;7.93;2.12;;;;;;;12.31;60.51;100624.97;4175545;34;35264;-74
2022/05/20 01:02:53;;;;;;;7.25;1.90;;;;;;;12.19;59.29;100621.84;4185373;34;35440;-74
2022/05/20 01:05:46;;;;;;;4.30;1.60;;;;;;;12.35;58.21;100618.56;4187028;34;35319;-74
2022/05/20 01:08:33;;;;;;;6.12;1.92;;;;;;;12.21;58.16;100606.72;4195442;34;34924;-74
2022/05/20 01:11:19;;;;;;;5.05;2.05;;;;;;;12.37;58.14;100612.75;4184121;34;35421;-74
2022/05/20 01:14:06;;;;;;;4.53;1.85;;;;;;;12.27;58.42;100610.19;4182853;34;35240;-74
2022/05/20 01:16:53;;;;;;;4.05;1.87;;;;;;;11.86;59.67;100611.59;4185357;34;34603;-74
2022/05/20 01:19:44;;;;;;;5.15;1.95;;;;;;;12.37;58.48;100621.00;4175561;34;35930;-73
2022/05/20 01:22:43;;;;;;;5.68;2.10;;;;;;;12.31;58.28;100617.53;4194516;34;35737;-73
2022/05/20 01:25:30;;;;;;;4.35;2.00;;;;;;;12.34;58.64;100618.88;4195554;34;35179;-74
2022/05/20 01:28:19;;;;;;;4.37;1.98;;;;;;;12.13;59.52;100610.94;4185515;34;34261;-74
2022/05/20 01:31:12;;;;;;;3.87;1.77;;;;;;;12.07;60.27;100611.31;4184412;34;36000;-74
2022/05/20 01:33:58;;;;;;;4.40;1.65;;;;;;;11.83;60.74;100603.91;4186463;34;35737;-74
2022/05/20 01:36:45;;;;;;;6.82;2.08;;;;;;;11.97;60.53;100615.00;4194449;34;34291;-74
2022/05/20 01:39:31;;;;;;;4.53;1.80;;;;;;;12.04;60.35;100607.22;4185200;34;35627;-73
2022/05/20 01:42:25;;;;;;;2.83;1.62;;;;;;;11.89;60.53;100612.94;4195245;34;35987;-74
2022/05/20 01:45:16;;;;;;;3.80;1.90;;;;;;;12.14;59.86;100611.75;4195137;34;34934;-74
2022/05/20 01:48:12;;;;;;;4.82;1.83;;;;;;;12.26;58.07;100612.09;4194443;34;33618;-74
2022/05/20 01:51:02;;;;;;;4.55;1.92;;;;;;;12.10;58.21;100608.78;4194510;34;34413;-74
2022/05/20 01:54:02;;;;;;;6.07;2.08;;;;;;;12.14;58.68;100590.59;4194588;34;34459;-74
2022/05/20 01:56:53;;;;;;;5.05;2.10;;;;;;;11.87;58.75;100585.78;4194925;34;34847;-74
2022/05/20 01:59:44;;;;;;;3.87;1.67;;;;;;;11.88;58.70;100586.59;4193985;34;33961;-74
2022/05/20 02:02:37;;;;;;;2.95;1.80;;;;;;;11.76;59.63;100588.94;4180099;34;34613;-74
2022/05/20 02:05:31;;;;;;;3.75;1.80;;;;;;;11.22;62.08;100588.22;4185242;34;34621;-74
2022/05/20 02:08:28;;;;;;;4.35;1.85;;;;;;;11.44;62.18;100588.50;4184471;34;35676;-74
2022/05/20 02:11:26;;;;;;;3.47;1.80;;;;;;;11.19;62.70;100580.59;4194904;34;35421;-74
2022/05/20 02:14:25;;;;;;;3.17;1.80;;;;;;;11.25;62.30;100584.91;4185054;34;35266;-74
2022/05/20 02:17:19;;;;;;;3.15;1.75;;;;;;;11.10;62.35;100587.81;4186489;34;35118;-73
2022/05/20 02:20:27;;;;;;;4.10;1.70;;;;;;;11.09;61.67;100581.50;4186161;34;34892;-74
2022/05/20 02:23:35;;;;;;;3.87;1.70;;;;;;;10.17;63.18;100585.06;4186066;34;33484;-74
2022/05/20 02:26:29;;;;;;;3.87;1.70;;;;;;;10.95;61.20;100588.78;4186847;34;33569;-73
2022/05/20 02:29:18;;;;;;;2.45;1.60;;;;;;;10.64;61.89;100589.09;4185833;34;35094;-74
2022/05/20 02:32:07;;;;;;;4.18;1.75;;;;;;;11.18;61.07;100584.44;4194635;34;33599;-73
2022/05/20 02:34:54;;;;;;;3.25;1.85;;;;;;;11.52;59.59;100587.03;4186285;34;35363;-74
2022/05/20 02:37:40;;;;;;;3.83;1.62;;;;;;;11.30;60.26;100578.53;4184544;34;34840;-74
2022/05/20 02:40:27;;;;;;;5.15;1.85;;;;;;;11.19;61.30;100583.34;4185268;34;34919;-73
2022/05/20 02:43:13;;;;;;;2.85;1.77;;;;;;;11.17;62.06;100580.06;4186752;34;36312;-74
2022/05/20 02:46:00;;;;;;;3.62;2.00;;;;;;;11.22;62.66;100575.31;4193331;34;34324;-74
2022/05/20 02:48:46;;;;;;;4.07;1.90;;;;;;;11.20;63.36;100569.31;4186367;34;34756;-73
2022/05/20 02:51:33;;;;;;;3.80;2.08;;;;;;;10.81;64.76;100558.50;4185951;34;35072;-74
2022/05/20 02:54:19;;;;;;;3.30;2.03;;;;;;;11.19;63.97;100556.72;4175853;34;35638;-74
2022/05/20 02:57:05;;;;;;;4.03;2.10;;;;;;;11.35;63.03;100567.50;4186129;34;34262;-73
2022/05/20 03:06:02;;;;;;;3.92;2.10;;;;;;;11.17;62.50;100545.22;4185785;34;34858;-73
2022/05/20 03:08:48;;;;;;;3.03;1.62;;;;;;;11.22;62.46;100550.62;4186707;34;35367;-73
2022/05/20 03:11:35;;;;;;;4.97;2.25;;;;;;;11.06;63.66;100551.12;4195100;34;35549;-73
2022/05/20 03:14:22;;;;;;;7.93;2.40;;;;;;;10.99;64.20;100549.53;4185986;34;34758;-74
2022/05/20 03:17:08;;;;;;;4.03;1.98;;;;;;;11.13;63.83;100557.88;4185336;34;33694;-74
2022/05/20 03:19:55;;;;;;;4.72;2.17;;;;;;;11.20;63.72;100558.34;4193754;34;34331;-73
2022/05/20 03:22:41;;;;;;;7.57;2.30;;;;;;;11.12;64.16;100558.16;4184533;34;34633;-73
2022/05/20 03:25:28;;;;;;;4.47;2.40;;;;;;;10.93;64.39;100552.59;4184770;34;34954;-73
2022/05/20 03:28:15;;;;;;;5.40;2.20;;;;;;;11.42;63.30;100557.00;4184091;34;34393;-73
2022/05/20 03:31:07;;;;;;;3.45;2.28;;;;;;;11.34;62.74;100560.38;4174352;34;34397;-73
2022/05/20 03:33:53;;;;;;;;;;;;;;;11.47;62.75;100556.94;4185582;34;34413;-73
2022/05/20 03:36:42;;;;;;;5.50;2.30;;;;;;;11.35;63.27;100559.25;4193106;34;35195;-73
2022/05/20 03:39:29;;;;;;;5.75;2.42;;;;;;;11.06;64.35;100551.12;4194775;34;35363;-73
2022/05/20 03:42:16;;;;;;;6.10;2.00;;;;;;;11.17;64.39;100553.44;4194726;34;35692;-73
2022/05/20 03:45:02;;;;;;;3.80;1.80;;;;;;;11.16;64.55;100557.31;4186447;34;34434;-74
2022/05/20 03:47:49;;;;;;;5.80;2.03;;;;;;;10.93;63.42;100552.59;4194421;34;36035;-74
2022/05/20 03:50:36;;;;;;;4.25;2.17;;;;;;;10.86;65.87;100563.94;4194194;34;34938;-74
2022/05/20 03:53:22;;;;;;;5.47;2.40;;;;;;;10.98;65.60;100555.31;4184486;34;35331;-74
2022/05/20 03:56:09;;;;;;;6.05;2.30;;;;;;;11.43;64.26;100559.41;4186444;34;34244;-74
2022/05/20 03:58:56;;;;;;;5.43;3.08;;;;;;;11.58;64.19;100561.12;4185236;34;34377;-74
2022/05/20 04:01:58;;;;;;;4.82;2.53;;;;;;;11.59;64.21;100554.56;4183681;34;34953;-74
2022/05/20 04:04:48;;;;;;;7.90;2.03;;;;;;;11.66;63.82;100556.94;4179221;34;124423;-73
2022/05/20 04:07:34;;;;;;;5.72;2.28;;;;;;;11.76;63.06;100558.72;4185268;34;34700;-73
2022/05/20 04:10:22;;;;;;;3.37;2.00;;;;;;;11.58;63.05;100555.66;4185840;34;35038;-74
2022/05/20 04:13:09;;;;;;;2.95;1.55;;;;;;;11.88;62.36;100561.88;4185780;34;34557;-73
2022/05/20 04:15:55;;;;;;;4.37;1.90;;;;;;;11.75;62.06;100559.81;4194639;34;34437;-74
2022/05/20 04:18:43;;;;;;;3.87;1.75;;;;;;;11.82;60.06;100563.03;4194766;34;35539;-73
2022/05/20 04:21:29;;;;;;;5.20;2.30;;;;;;;11.49;62.02;100557.44;4188022;34;35011;-74
2022/05/20 04:24:22;;;;;;;9.65;2.20;;;;;;;11.24;61.59;100553.91;4192542;34;34920;-73
2022/05/20 04:27:08;;;;;;;12.05;2.70;;;;;;;11.42;62.13;100562.47;4184859;34;34373;-73
2022/05/20 04:29:56;;;;;;;4.87;2.20;;;;;;;11.89;61.11;100558.00;4193362;34;34599;-73
2022/05/20 04:32:42;;;;;;;5.30;2.03;;;;;;;12.20;60.77;100554.78;4186532;34;36099;-74
2022/05/20 04:35:29;;;;;;;5.55;2.17;;;;;;;12.88;58.88;100553.34;4196431;34;34210;-73
2022/05/20 04:38:16;;;;;;;6.90;2.25;;;;;;;11.89;61.46;100563.50;4187131;34;35264;-73
2022/05/20 04:47:19;;;;;;;5.70;1.80;;;;;;;12.71;60.08;100562.16;4187390;34;34530;-73
2022/05/20 04:50:07;;;;;;;6.00;2.03;;;;;;;13.38;58.65;100536.97;4196258;34;35281;-73
2022/05/20 04:52:53;;;;;;;3.78;1.85;;;;;;;13.80;56.02;100543.19;4186695;34;33544;-73
2022/05/20 04:55:39;;;;;;;5.75;2.10;;;;;;;13.60;58.58;100544.47;4186492;34;34982;-73
2022/05/20 04:58:26;;;;;;;5.25;2.30;;;;;;;13.90;56.17;100542.97;4187595;34;35025;-73
2022/05/20 05:01:14;;;;;;;5.50;2.53;;;;;;;12.58;58.57;100553.59;4186636;34;34089;-73
2022/05/20 05:04:01;;;;;;;3.90;1.67;;;;;;;12.62;59.63;100547.50;4187606;34;35265;-73
2022/05/20 05:06:47;;;;;;;4.10;2.08;;;;;;;13.42;57.19;100548.97;4186550;34;36060;-73
2022/05/20 05:09:33;;;;;;;9.50;2.20;;;;;;;13.75;55.88;100549.63;4186368;34;35450;-73
2022/05/20 05:12:22;;;;;;;7.10;2.35;;;;;;;13.25;57.87;100568.84;4186670;34;34363;-73
2022/05/20 05:15:09;;;;;;;10.27;2.10;;;;;;;12.29;61.99;100583.22;4195257;34;35711;-73
2022/05/20 05:18:12;;;;;;;5.75;3.08;;;;;;;13.50;58.48;100568.34;4186201;34;35144;-72
2022/05/20 05:21:01;;;;;;;3.78;2.00;;;;;;;13.43;56.68;100572.63;4189265;34;35038;-72
2022/05/20 05:23:48;;;;;;;3.92;2.08;;;;;;;13.97;56.48;100564.56;4189835;34;34300;-72
2022/05/20 05:26:35;;;;;;;5.20;2.08;;;;;;;14.67;54.33;100552.94;4189311;34;34670;-72
2022/05/20 05:29:22;;;;;;;5.97;2.20;;;;;;;15.21;54.54;100553.66;4189572;34;35940;-72
2022/05/20 05:32:08;;;;;;;3.95;2.00;;;;;;;15.18;55.20;100565.34;4178801;34;35892;-72
2022/05/20 05:34:55;;;;;;;4.97;2.00;;;;;;;15.56;55.21;100553.75;4189558;34;34410;-72
2022/05/20 05:37:42;;;;;;;9.15;2.83;;;;;;;15.73;54.63;100555.75;4187343;34;34745;-72
2022/05/20 05:40:32;;;;;;;10.07;2.97;;;;;;;15.87;52.80;100542.59;4196232;34;35013;-72
2022/05/20 05:43:19;;;;;;;7.25;2.58;;;;;;;15.85;53.80;100547.66;4182624;34;35432;-71
2022/05/20 05:46:09;;;;;;;7.87;3.30;;;;;;;15.77;52.70;100547.62;4193298;34;35266;-72
2022/05/20 05:48:56;;;;;;;6.43;2.83;;;;;;;16.12;50.86;100542.94;4196568;34;35482;-71
2022/05/20 05:51:43;;;;;;;7.32;2.60;;;;;;;16.31;49.17;100545.37;4188388;34;35022;-71
2022/05/20 05:54:30;;;;;;;6.53;2.28;;;;;;;16.39;48.56;100541.75;4177631;34;34900;-72
2022/05/20 05:57:22;;;;;;;7.93;2.42;;;;;;;16.94;47.27;100540.97;4187198;34;34314;-72
2022/05/20 06:00:09;;;;;;;9.55;2.70;;;;;;;17.14;45.79;100538.63;4196606;34;35351;-72
2022/05/20 06:02:56;;;;;;;7.43;3.10;;;;;;;17.05;45.39;100542.25;4193389;34;35027;-73
2022/05/20 06:05:44;;;;;;;9.70;2.58;;;;;;;17.13;47.18;100528.66;4187117;34;34945;-72
2022/05/20 06:08:30;;;;;;;8.63;2.60;;;;;;;17.63;47.41;100527.91;4194522;34;34387;-73
2022/05/20 06:11:19;;;;;;;7.20;2.55;;;;;;;17.91;43.54;100537.34;4195882;34;34731;-73
2022/05/20 06:14:07;;;;;;;6.90;2.00;;;;;;;18.14;44.53;100526.69;4185625;34;36036;-74
2022/05/20 06:16:53;;;;;;;6.85;2.30;;;;;;;17.66;40.02;100524.44;4187668;34;36033;-74
2022/05/20 06:19:40;;;;;;;4.90;1.80;;;;;;;18.44;40.57;100523.78;4196155;34;32924;-72
2022/05/20 06:22:27;;;;;;;11.18;2.47;;;;;;;18.77;40.14;100523.78;4196333;34;34570;-73
2022/05/20 06:25:13;;;;;;;5.90;2.58;;;;;;;19.09;42.22;100521.25;4183690;34;34925;-73
2022/05/20 06:28:12;;;;;;;7.00;2.00;;;;;;;19.44;40.86;100520.75;4184218;34;33381;-73
2022/05/20 06:30:58;;;;;;;7.40;1.90;;;;;;;19.36;38.36;100518.94;4184448;34;34810;-73
2022/05/20 06:33:44;;;;;;;7.45;1.87;;;;;;;18.91;35.67;100517.09;4187617;34;34688;-73
2022/05/20 06:39:51;;;;;;;6.50;2.15;;;;;;;18.55;35.04;100524.97;4186522;34;35904;-73
2022/05/20 06:42:36;;;;;;;6.85;1.90;;;;;;;18.44;37.59;100523.78;4193645;34;35126;-73
2022/05/20 06:45:23;;;;;;;6.90;2.12;;;;;;;19.12;36.93;100528.87;4186996;34;34639;-72
2022/05/20 06:48:09;;;;;;;9.75;3.67;;;;;;;19.36;37.23;100532.84;4186768;34;35730;-73
2022/05/20 06:50:55;;;;;;;9.35;2.10;;;;;;;19.11;37.81;100530.06;4186919;34;33855;-71
2022/05/20 06:53:41;;;;;;;5.50;2.20;;;;;;;19.17;36.18;100525.88;4187647;34;35325;-72
2022/05/20 06:56:29;;;;;;;4.30;2.05;;;;;;;19.64;37.89;100525.37;4185594;34;35612;-72
2022/05/20 06:59:15;;;;;;;6.87;2.37;;;;;;;18.64;36.37;100535.97;4185724;34;35147;-72
2022/05/20 07:02:02;;;;;;;9.10;2.20;;;;;;;19.29;36.00;100536.19;4184250;34;34937;-72
2022/05/20 07:05:08;;;;;;;7.30;2.12;;;;;;;20.08;37.01;100535.84;4186179;34;34369;-74
2022/05/20 07:07:56;;;;;;;13.70;2.97;;;;;;;19.62;36.18;100538.81;4186274;34;35684;-72
2022/05/20 07:10:42;;;;;;;13.20;3.30;;;;;;;19.94;38.85;100534.25;4188137;34;35077;-73
2022/05/20 07:13:54;;;;;;;6.07;2.08;;;;;;;19.50;36.68;100538.84;4186276;34;35686;-72
2022/05/20 07:16:40;;;;;;;;;;;;;;;19.18;36.90;100546.97;4185288;34;34468;-71
2022/05/20 07:19:26;;;;;;;5.03;2.08;;;;;;;19.66;36.46;100545.31;4186393;34;35799;-73
2022/05/20 07:22:13;;;;;;;6.62;2.20;;;;;;;19.69;36.18;100533.50;4187593;34;35865;-72
2022/05/20 07:24:59;;;;;;;3.83;1.90;;;;;;;19.89;36.25;100537.25;4197222;34;34535;-71
2022/05/20 07:27:46;;;;;;;6.15;1.90;;;;;;;20.25;36.88;100543.06;4188469;34;34419;-71
2022/05/20 07:30:33;;;;;;;4.78;1.65;;;;;;;20.18;36.45;100538.94;4187998;34;34714;-73
2022/05/20 07:33:19;;;;;;;6.05;2.72;;;;;;;20.06;35.75;100535.37;4188988;34;35044;-72
2022/05/20 07:36:06;;;;;;;5.72;1.92;;;;;;;20.03;34.83;100536.88;4188130;34;35802;-72
2022/05/20 07:38:53;;;;;;;19.85;3.62;;;;;;;20.53;36.46;100543.09;4195562;34;34278;-74
2022/05/20 07:41:39;;;;;;;18.40;4.10;;;;;;;20.75;35.18;100533.31;4187523;34;34486;-72
2022/05/20 07:44:27;;;;;;;6.32;2.10;;;;;;;20.86;34.50;100540.78;4195213;34;34724;-75
2022/05/20 07:47:13;;;;;;;8.52;1.80;;;;;;;20.27;35.23;100544.34;4186613;34;35729;-73
2022/05/20 07:50:00;;;;;;;7.03;2.62;;;;;;;20.56;35.40;100543.16;4186358;34;34324;-73
2022/05/20 07:56:00;;;;;;;6.78;2.03;;;;;;;20.19;35.85;100537.75;4187148;34;34968;-73
2022/05/20 07:58:54;;;;;;;3.90;2.22;;;;;;;20.60;35.55;100541.28;4185643;34;35235;-74
2022/05/20 08:01:42;;;;;;;6.25;2.08;;;;;;;21.22;35.51;100535.28;4192975;34;34290;-76
2022/05/20 08:07:44;;;;;;;5.32;1.85;;;;;;;21.36;36.00;100527.25;4184520;34;34642;-74
2022/05/20 08:10:33;;;;;;;3.40;1.80;;;;;;;21.48;35.05;100532.75;4194891;34;34870;-74
2022/05/20 08:13:21;;;;;;;5.25;2.12;;;;;;;21.45;34.77;100519.53;4187799;34;32905;-73
2022/05/20 08:16:08;;;;;;;5.43;2.12;;;;;;;21.43;35.40;100521.06;4198398;34;34586;-73
2022/05/20 08:18:54;;;;;;;6.45;1.95;;;;;;;21.33;34.16;100517.66;4190131;34;35054;-73
2022/05/20 08:21:40;;;;;;;4.22;1.65;;;;;;;22.04;35.19;100514.03;4189354;34;35956;-72
2022/05/20 08:24:27;;;;;;;7.72;2.30;;;;;;;21.92;34.06;100517.78;4189848;34;35227;-74
2022/05/20 08:27:13;;;;;;;7.55;2.12;;;;;;;22.43;34.67;100510.06;4179153;34;34295;-74
2022/05/20 08:30:10;;;;;;;43.90;8.68;;;;;;;22.36;34.05;100506.31;4189695;34;35942;-73
2022/05/20 08:32:56;;;;;;;7.35;2.35;;;;;;;23.13;34.65;100514.47;4189044;34;35019;-73
2022/05/20 08:35:42;;;;;;;17.45;3.47;;;;;;;22.49;33.38;100501.37;4190654;34;34424;-75
2022/05/20 08:38:30;;;;;;;6.18;2.60;;;;;;;23.26;33.68;100498.31;4191777;34;34529;-74
2022/05/20 08:41:26;;;;;;;5.03;1.90;;;;;;;23.00;31.98;100501.09;4197926;34;36222;-74
2022/05/20 08:44:17;;;;;;;5.22;1.95;;;;;;;22.77;32.41;100490.72;4196969;34;34916;-73
2022/05/20 08:47:12;;;;;;;4.60;2.12;;;;;;;23.82;33.42;100488.31;4197751;34;34440;-72
2022/05/20 08:50:01;;;;;;;7.28;2.05;;;;;;;24.75;31.59;100482.94;4174904;34;34665;-73
2022/05/20 08:52:50;;;;;;;5.70;2.42;;;;;;;23.51;31.29;100479.09;4185205;34;36000;-75
2022/05/20 08:55:36;;;;;;;5.55;2.17;;;;;;;23.63;31.53;100475.25;4185763;34;34978;-73
2022/05/20 08:58:23;;;;;;;3.40;1.98;;;;;;;22.85;31.38;100475.69;4188539;34;35950;-74
2022/05/20 09:01:09;;;;;;;6.15;2.50;;;;;;;23.50;31.33;100476.66;4198389;34;35791;-75
2022/05/20 09:03:56;;;;;;;7.30;2.22;;;;;;;24.69;30.73;100479.69;4198079;34;35936;-73
2022/05/20 09:07:04;;;;;;;5.20;2.25;;;;;;;24.82;31.29;100471.81;4188154;34;35012;-73
2022/05/20 09:09:55;;;;;;;4.28;1.80;;;;;;;24.24;31.78;100454.41;4197563;34;34344;-77
2022/05/20 09:12:42;;;;;;;6.10;2.22;;;;;;;25.27;30.08;100447.31;4198218;34;34656;-81
2022/05/20 09:15:43;;;;;;;5.10;1.92;;;;;;;24.50;30.50;100446.28;4188291;34;34976;-75
2022/05/20 09:18:39;;;;;;;5.53;2.10;;;;;;;25.66;30.40;100441.91;4188316;34;35836;-74
2022/05/20 09:21:28;;;;;;;4.85;2.00;;;;;;;24.72;29.30;100441.69;4189170;34;34441;-74
2022/05/20 09:24:22;;;;;;;4.40;2.10;;;;;;;24.91;30.53;100447.84;4189515;34;34673;-75
2022/05/20 09:27:12;;;;;;;5.90;2.65;;;;;;;24.96;30.80;100440.25;4189950;34;34940;-74
2022/05/20 09:30:01;;;;;;;7.53;2.95;;;;;;;25.60;29.63;100434.25;4188459;34;35733;-75
2022/05/20 09:33:00;;;;;;;9.35;2.45;;;;;;;25.06;31.66;100426.31;4185348;34;34359;-73
2022/05/20 09:35:55;;;;;;;5.53;2.40;;;;;;;24.54;31.11;100431.13;4187868;34;34878;-73
2022/05/20 09:38:43;;;;;;;5.97;2.35;;;;;;;25.48;31.21;100430.59;4187203;34;35041;-73
2022/05/20 09:41:44;;;;;;;7.50;2.45;;;;;;;26.27;30.63;100419.66;4177459;34;34507;-75
2022/05/20 09:44:36;;;;;;;8.45;2.45;;;;;;;26.54;29.51;100413.69;4196952;34;33187;-74
2022/05/20 09:47:28;;;;;;;6.47;2.55;;;;;;;26.91;30.07;100416.87;4196803;34;34744;-75
2022/05/20 09:50:38;;;;;;;4.87;2.42;;;;;;;26.62;29.65;100423.72;4188482;34;34852;-74
2022/05/20 09:53:36;;;;;;;6.53;2.47;;;;;;;27.26;28.68;100429.28;4182428;34;34895;-75
2022/05/20 09:56:23;;;;;;;8.63;2.65;;;;;;;27.52;27.79;100424.38;4193309;34;34253;-75
2022/05/20 09:59:20;;;;;;;5.35;2.50;;;;;;;27.55;28.76;100418.75;4192926;34;35675;-74
2022/05/20 10:02:09;;;;;;;6.47;2.78;;;;;;;26.66;28.80;100425.31;4176091;34;34990;-74
2022/05/20 10:05:03;;;;;;;6.20;2.62;;;;;;;26.66;28.77;100421.69;4186881;34;34408;-75
2022/05/20 10:08:11;;;;;;;6.93;2.95;;;;;;;25.56;30.89;100426.63;4184864;34;34349;-74
2022/05/20 10:11:13;;;;;;;5.43;2.55;;;;;;;25.78;29.79;100416.28;4190366;34;34627;-75
2022/05/20 10:14:00;;;;;;;;;;;;;;;25.89;30.49;100410.72;4182846;34;35599;-77
2022/05/20 10:17:00;;;;;;;5.72;2.50;;;;;;;25.97;29.58;100412.38;4194127;34;34560;-77
2022/05/20 10:20:02;;;;;;;4.28;2.50;;;;;;;26.35;29.79;100412.81;4194857;34;34484;-77
2022/05/20 10:23:01;;;;;;;6.18;2.70;;;;;;;26.86;29.34;100410.84;4194818;34;34429;-76
2022/05/20 10:26:08;;;;;;;4.15;2.53;;;;;;;26.34;30.55;100404.81;4193891;34;36105;-75
2022/05/20 10:32:36;;;;;;;5.80;2.65;;;;;;;25.60;30.54;100398.59;4184507;34;35247;-77
2022/05/20 10:35:29;;;;;;;6.32;2.75;;;;;;;26.96;28.48;100398.00;4194061;34;36018;-76
2022/05/20 10:38:49;;;;;;;6.50;3.00;;;;;;;27.10;29.68;100390.31;4183014;34;35085;-76
2022/05/20 10:42:13;;;;;;;7.97;2.60;;;;;;;26.99;29.45;100405.63;4175554;34;34789;-74
2022/05/20 10:48:34;;;;;;;7.70;2.92;;;;;;;27.71;28.29;100397.75;4186114;34;34793;-74
2022/05/20 10:51:45;;;;;;;4.87;3.17;;;;;;;28.42;28.67;100379.66;4192535;34;35979;-75
2022/05/20 10:54:42;;;;;;;6.82;3.03;;;;;;;27.48;29.65;100381.38;4183810;34;34745;-74
2022/05/20 10:58:06;;;;;;;4.75;2.80;;;;;;;28.05;28.34;100383.91;4185414;34;35296;-75
2022/05/20 11:00:55;;;;;;;5.93;3.83;;;;;;;28.01;28.17;100371.88;4176228;34;36130;-75
2022/05/20 11:03:56;;;;;;;7.37;3.15;;;;;;;27.97;27.40;100371.09;4185419;34;34741;-76
2022/05/20 11:07:21;;;;;;;5.93;3.10;;;;;;;27.68;27.68;100370.44;4184163;34;34882;-75
2022/05/20 11:10:10;;;;;;;5.28;3.00;;;;;;;28.48;27.72;100373.16;4184363;34;34430;-74
2022/05/20 11:12:56;;;;;;;4.75;3.08;;;;;;;28.67;26.12;100373.81;4183683;34;33551;-74
2022/05/20 11:16:28;;;;;;;6.90;3.50;;;;;;;29.32;28.53;100363.47;4187422;34;33795;-74
2022/05/20 11:19:40;;;;;;;7.10;3.25;;;;;;;28.61;27.08;100353.72;4181394;34;34765;-76
2022/05/20 11:22:45;;;;;;;6.20;2.97;;;;;;;29.33;26.32;100348.13;4184683;34;34407;-77
2022/05/20 11:25:56;;;;;;;7.43;3.65;;;;;;;29.69;25.85;100342.03;4186782;34;35788;-74
2022/05/20 11:29:04;;;;;;;3.80;2.80;;;;;;;28.61;27.57;100344.47;4184143;34;34578;-75
2022/05/20 11:32:02;;;;;;;8.02;3.35;;;;;;;28.65;27.29;100348.84;4185663;34;35306;-72
2022/05/20 11:35:17;;;;;;;6.53;2.90;;;;;;;28.22;28.31;100348.38;4186547;34;35219;-73
2022/05/20 11:38:42;;;;;;;6.20;3.08;;;;;;;28.17;28.57;100346.78;4186552;34;34798;-74
2022/05/20 11:41:53;;;;;;;5.82;3.08;;;;;;;28.16;28.40;100333.94;4185672;34;36914;-74
2022/05/20 11:44:50;;;;;;;7.45;2.97;;;;;;;28.62;27.51;100329.13;4184310;34;34852;-73
2022/05/20 11:47:47;;;;;;;4.78;3.00;;;;;;;27.53;28.25;100325.47;4195086;34;34091;-75
2022/05/20 11:50:37;;;;;;;5.25;2.95;;;;;;;28.17;28.92;100318.63;4185786;34;35167;-74
2022/05/20 11:53:30;;;;;;;16.08;3.72;;;;;;;29.21;26.94;100306.34;4185875;34;34922;-74
2022/05/20 11:56:31;;;;;;;10.27;3.10;;;;;;;29.95;27.12;100312.19;4193984;34;35726;-75
2022/05/20 11:59:23;;;;;;;5.28;3.25;;;;;;;28.98;28.07;100309.81;4194546;34;35711;-74
2022/05/20 12:02:11;;;;;;;5.93;3.15;;;;;;;29.33;28.29;100313.44;4184211;34;34265;-74
2022/05/20 12:04:59;;;;;;;4.05;2.97;;;;;;;28.22;28.61;100311.75;4192855;34;35058;-74
2022/05/20 12:07:45;;;;;;;4.82;2.97;;;;;;;28.35;29.21;100306.44;4184780;34;34913;-74
2022/05/20 12:10:31;;;;;;;5.25;3.25;;;;;;;29.17;29.35;100310.44;4184567;34;34259;-75
2022/05/20 12:13:21;;;;;;;4.20;2.75;;;;;;;29.28;27.26;100294.94;4186143;34;34631;-74
2022/05/20 12:16:07;;;;;;;5.50;2.75;;;;;;;28.81;28.40;100294.69;4184479;34;35932;-74
2022/05/20 12:25:38;;;;;;;7.80;3.53;;;;;;;30.57;26.30;100289.34;4185997;34;35002;-74
2022/05/20 12:28:25;;;;;;;6.35;3.12;;;;;;;29.95;27.15;100280.31;4183464;34;35148;-75
2022/05/20 12:31:20;;;;;;;9.45;3.12;;;;;;;30.40;26.80;100277.16;4182740;34;34903;-74
2022/05/20 12:34:10;;;;;;;6.53;3.40;;;;;;;30.23;27.10;100282.69;4183917;34;35332;-74
2022/05/20 12:36:56;;;;;;;11.07;2.78;;;;;;;30.68;25.93;100275.81;4193796;34;34635;-75
2022/05/20 12:39:49;;;;;;;11.52;3.42;;;;;;;29.85;27.79;100270.78;4174130;34;34493;-74
2022/05/20 12:43:11;;;;;;;5.95;2.97;;;;;;;28.75;28.18;100273.03;4193512;34;34974;-74
2022/05/20 12:45:58;;;;;;;8.23;3.30;;;;;;;29.85;27.90;100267.16;4185333;34;35057;-75
2022/05/20 12:48:44;;;;;;;6.03;3.05;;;;;;;30.00;27.32;100260.06;4194628;34;34381;-73
2022/05/20 12:51:40;;;;;;;5.40;2.90;;;;;;;28.85;28.33;100261.59;4192805;34;34891;-74
2022/05/20 12:54:26;;;;;;;6.70;3.03;;;;;;;29.36;28.51;100261.78;4184457;34;33949;-74
2022/05/20 12:57:22;;;;;;;6.55;3.00;;;;;;;30.01;27.02;100250.34;4195881;34;33729;-74
2022/05/20 13:00:12;;;;;;;10.50;3.45;;;;;;;28.81;28.29;100249.59;4195564;34;33619;-74
2022/05/20 13:03:05;;;;;;;8.25;3.10;;;;;;;29.99;27.06;100247.13;4188588;34;35091;-75
2022/05/20 13:05:55;;;;;;;10.57;3.50;;;;;;;29.45;27.96;100250.78;4196281;34;34665;-75
2022/05/20 13:08:47;;;;;;;;;;;;;;;29.53;28.20;100243.81;4187083;34;34422;-75
2022/05/20 13:11:42;;;;;;;8.27;3.20;;;;;;;30.66;26.30;100242.31;4188504;34;34921;-74
2022/05/20 13:14:30;;;;;;;7.87;3.30;;;;;;;30.42;26.25;100230.25;4186554;34;36745;-74
2022/05/20 13:17:19;;;;;;;8.25;3.35;;;;;;;31.15;25.34;100238.91;4195608;34;34917;-74
2022/05/20 13:20:06;;;;;;;6.95;3.35;;;;;;;31.22;25.37;100230.25;4185837;34;34326;-77
2022/05/20 13:22:58;;;;;;;4.93;3.08;;;;;;;29.66;27.29;100229.16;4192339;34;34554;-76
2022/05/20 13:25:45;;;;;;;6.80;3.20;;;;;;;30.13;28.03;100229.16;4176472;34;34947;-76
2022/05/20 13:28:34;;;;;;;6.50;3.08;;;;;;;30.63;26.76;100223.37;4191895;34;34916;-77
2022/05/20 13:31:23;;;;;;;6.20;3.55;;;;;;;30.10;28.54;100222.31;4193743;34;34403;-76
2022/05/20 13:34:09;;;;;;;6.12;3.60;;;;;;;30.60;27.35;100217.81;4195905;34;34209;-76
2022/05/20 13:36:57;;;;;;;8.30;3.30;;;;;;;30.92;26.71;100217.97;4187352;34;35917;-77
2022/05/20 13:39:44;;;;;;;10.65;3.40;;;;;;;31.52;25.35;100217.06;4195933;34;34417;-76
2022/05/20 13:42:32;;;;;;;7.20;3.25;;;;;;;31.55;26.35;100210.53;4187086;34;34264;-76
2022/05/20 13:49:12;;;;;;;6.20;3.47;;;;;;;31.69;25.59;100207.34;4195154;34;34663;-76
2022/05/20 13:51:54;;;;;;;5.28;3.42;;;;;;;31.01;25.95;100196.78;4194388;34;34514;-76
2022/05/20 13:54:44;;;;;;;4.55;3.30;;;;;;;30.99;27.33;100194.38;4187285;34;35407;-76
2022/05/20 13:57:33;;;;;;;8.13;4.20;;;;;;;31.03;26.74;100183.78;4195920;34;34032;-77